Arlod, France

11:24 PM CET on February 23, 2018 (GMT +0100)
Ferme de Vauglene | | Change Station

Elev 1450 ft 46.09 °N, 5.80 °E | Updated 8 seconds ago

Mostly Cloudy
Mostly Cloudy
28.9 °F
Feels Like 29 °F
N
0.2
Wind Variable Wind from WSW
Gusts 2.5 mph

Today
High -- | Low -- °F
--% Chance of Precip.
Yesterday
High -- | Low -- °F
Precip. -- in
Pressure 29.86 in
Visibility 3.7 miles
Clouds Few 2100 ft
Mostly Cloudy 2400 ft
Windchill 29 °F
Dew Point 21 °F
Humidity 72%
Rainfall 0.00 in
Snow Depth Not available.
7:26 AM 6:14 PM
First Quarter, 57% visible
METAR LSGG 232220Z 02009KT 6000 FEW021 BKN024 M01/M05 Q1011 NOSIG
Pressure 29.86 in
Visibility 3.7 miles
Clouds Few 2100 ft
Mostly Cloudy 2400 ft
Windchill 29 °F
Dew Point 21 °F
Humidity 72%
Rainfall 0.00 in
Snow Depth Not available.
7:26 AM 6:14 PM
First Quarter, 57% visible
METAR LSGG 232220Z 02009KT 6000 FEW021 BKN024 M01/M05 Q1011 NOSIG

Get Severe Weather Alerts

Thanks for signing up!

Be on the lookout for a verification email in your inbox.

You'll start receiving the daily forecast at 6 AM.

×

10-Day Weather Forecast

×

Almanac

Astronomy

Feb. 23, 2018 Rise Set
Actual Time
Civil Twilight
Nautical Twilight
Astronomical Twilight
Moon
Length of Visible Light
Length of Day
Tomorrow will be .
, % of the Moon is Illuminated

Today's Extremes

Country Highs Country Lows

Community

WunderPhotos

Category 6

Welcome to Category 6. This is the collective home for Weather Underground's featured writeups by Dr. Jeff Masters (right), Bob Henson (left), Chris Burt, and other regular contributors.

Nearby

Air Quality

  Air Quality AQ Index Pollutant
Not available.

Snow Depth

Station Depth Elevation

Earthquake Activity

City Distance Mag. Time & Date
Minimum magnitude displayed is 2.5.

Coastal Water Temperatures

Place Temperature

Stations

Nearby Weather Stations

Station Location Temp. Windchill Dew Point Humidity Wind Precip. Elev Updated Type